createdAt,value
2022-11-17T00:00:14.947Z,98.07
2022-11-17T00:01:13.104Z,98.07
2022-11-17T00:02:13.461Z,98.16
2022-11-17T00:03:14.613Z,98.16
2022-11-17T00:04:13.824Z,98.16
2022-11-17T00:05:14.066Z,98.21
2022-11-17T00:06:14.305Z,98.27
2022-11-17T00:07:14.649Z,98.32
2022-11-17T00:08:13.756Z,98.32
2022-11-17T00:09:15.075Z,98.42
2022-11-17T00:10:13.204Z,98.52
2022-11-17T00:11:13.465Z,98.52
2022-11-17T00:12:13.714Z,98.52
2022-11-17T00:13:14.021Z,98.52
2022-11-17T00:14:13.144Z,98.62
2022-11-17T00:15:13.424Z,98.72
2022-11-17T00:16:13.669Z,98.72
2022-11-17T00:17:14.951Z,98.62
2022-11-17T00:18:13.123Z,98.62
2022-11-17T00:19:16.595Z,98.62
2022-11-17T00:20:13.669Z,98.62
2022-11-17T00:21:13.055Z,98.62
2022-11-17T00:22:13.129Z,98.72
2022-11-17T00:23:13.375Z,98.72
2022-11-17T00:24:13.631Z,98.72
2022-11-17T00:25:12.894Z,98.72
2022-11-17T00:26:14.178Z,98.72
2022-11-17T00:27:14.444Z,98.62
2022-11-17T00:28:14.594Z,98.62
2022-11-17T00:29:12.876Z,98.52
2022-11-17T00:30:14.196Z,98.42
2022-11-17T00:31:14.375Z,98.52
2022-11-17T00:32:14.624Z,98.42
2022-11-17T00:33:13.824Z,98.42
2022-11-17T00:34:14.031Z,98.32
2022-11-17T00:35:13.230Z,98.21
2022-11-17T00:36:14.930Z,98.21
2022-11-17T00:37:14.694Z,98.21
2022-11-17T00:38:12.785Z,98.11
2022-11-17T00:39:16.120Z,98.21
2022-11-17T00:40:13.214Z,98.11
2022-11-17T00:41:14.485Z,98.11
2022-11-17T00:42:12.735Z,98.11
2022-11-17T00:43:12.826Z,98.00
2022-11-17T00:44:14.054Z,98.00
2022-11-17T00:45:13.220Z,98.11
2022-11-17T00:46:13.454Z,98.11
2022-11-17T00:47:12.649Z,98.11
2022-11-17T00:48:16.005Z,98.11
2022-11-17T00:49:13.056Z,98.11
2022-11-17T00:50:15.335Z,98.11
2022-11-17T00:51:12.450Z,98.11
2022-11-17T00:52:12.674Z,98.11
2022-11-17T00:53:12.895Z,98.00
2022-11-17T00:54:14.185Z,98.00
2022-11-17T00:55:13.410Z,98.00
2022-11-17T00:56:13.552Z,98.00
2022-11-17T00:57:12.756Z,98.00
2022-11-17T00:58:14.970Z,98.00
2022-11-17T00:59:15.200Z,97.91
2022-11-17T01:00:14.324Z,97.80
2022-11-17T01:01:14.592Z,97.80
2022-11-17T01:02:12.694Z,97.60
2022-11-17T01:03:12.900Z,97.60
2022-11-17T01:04:13.075Z,97.60
2022-11-17T01:05:12.283Z,97.49
2022-11-17T01:06:12.445Z,97.49
2022-11-17T01:07:12.701Z,97.39
2022-11-17T01:08:12.890Z,97.29
2022-11-17T01:09:14.489Z,97.29
2022-11-17T01:10:12.269Z,97.29
2022-11-17T01:11:13.590Z,97.08
2022-11-17T01:12:12.707Z,97.14
2022-11-17T01:13:13.955Z,97.08
2022-11-17T01:14:12.095Z,97.14
2022-11-17T01:15:12.340Z,97.34
2022-11-17T01:16:12.534Z,97.39
2022-11-17T01:17:13.849Z,97.45
2022-11-17T01:18:14.034Z,97.49
2022-11-17T01:19:12.170Z,97.60
2022-11-17T01:20:12.370Z,97.49
2022-11-17T01:21:12.591Z,97.49
2022-11-17T01:22:12.811Z,97.39
2022-11-17T01:23:11.999Z,97.45
2022-11-17T01:24:13.239Z,97.45
2022-11-17T01:25:12.424Z,97.60
2022-11-17T01:26:12.630Z,97.60
2022-11-17T01:27:37.782Z,97.80
2022-11-17T01:28:12.039Z,97.80
2022-11-17T01:29:12.281Z,97.70
2022-11-17T01:30:12.494Z,97.80
2022-11-17T01:31:14.804Z,97.91
2022-11-17T01:32:13.990Z,97.91
2022-11-17T01:33:12.116Z,98.11
2022-11-17T01:34:12.400Z,98.21
2022-11-17T01:35:12.561Z,98.21
2022-11-17T01:36:13.347Z,98.11
2022-11-17T01:37:11.942Z,98.11
2022-11-17T01:38:12.155Z,98.11
2022-11-17T01:39:12.389Z,98.11
2022-11-17T01:40:13.711Z,97.91
2022-11-17T01:41:11.805Z,98.00
2022-11-17T01:42:13.059Z,98.11
2022-11-17T01:43:12.231Z,98.21
2022-11-17T01:44:12.495Z,98.11
2022-11-17T01:45:13.749Z,98.21
2022-11-17T01:46:13.955Z,98.11
2022-11-17T01:47:12.080Z,98.21
2022-11-17T01:48:13.367Z,98.32
2022-11-17T01:49:12.552Z,98.52
2022-11-17T01:50:12.791Z,98.62
2022-11-17T01:51:12.010Z,98.83
2022-11-17T01:52:12.210Z,99.03
2022-11-17T01:53:13.504Z,99.38
2022-11-17T01:54:13.736Z,99.49
2022-11-17T01:55:13.999Z,99.59
2022-11-17T01:56:12.166Z,99.69
2022-11-17T01:57:12.401Z,99.79
2022-11-17T01:58:11.624Z,99.90
2022-11-17T01:59:12.908Z,99.90
2022-11-17T02:00:12.098Z,99.99
2022-11-17T02:01:12.444Z,99.99
2022-11-17T02:02:11.705Z,99.99
2022-11-17T02:03:11.802Z,99.99
2022-11-17T02:04:15.180Z,99.99
2022-11-17T02:05:12.290Z,99.99
2022-11-17T02:06:11.513Z,99.99
2022-11-17T02:07:11.870Z,99.99
2022-11-17T02:08:11.984Z,99.99
2022-11-17T02:09:12.212Z,99.99
2022-11-17T02:10:11.405Z,99.99
2022-11-17T02:11:11.359Z,99.99
2022-11-17T02:12:13.694Z,99.99
2022-11-17T02:13:11.835Z,99.99
2022-11-17T02:14:12.083Z,99.99
2022-11-17T02:15:11.268Z,99.99
2022-11-17T02:16:11.484Z,99.99
2022-11-17T02:17:19.148Z,99.99
2022-11-17T02:18:11.959Z,99.99
2022-11-17T02:19:11.175Z,99.85
2022-11-17T02:20:25.890Z,99.65
2022-11-17T02:21:11.643Z,99.65
2022-11-17T02:22:11.791Z,99.54
2022-11-17T02:23:12.119Z,99.44
2022-11-17T02:24:11.214Z,99.24
2022-11-17T02:25:11.444Z,99.13
2022-11-17T02:26:11.659Z,99.03
2022-11-17T02:27:11.924Z,98.99
2022-11-17T02:28:11.118Z,98.99
2022-11-17T02:29:11.513Z,98.99
2022-11-17T02:30:11.574Z,98.99
2022-11-17T02:31:11.798Z,99.09
2022-11-17T02:32:13.073Z,99.19
2022-11-17T02:33:11.231Z,99.03
2022-11-17T02:34:11.458Z,99.03
2022-11-17T02:35:11.732Z,98.88
2022-11-17T02:36:11.065Z,98.99
2022-11-17T02:37:11.043Z,98.99
2022-11-17T02:38:11.278Z,98.78
2022-11-17T02:39:11.509Z,98.47
2022-11-17T02:40:11.754Z,98.27
2022-11-17T02:41:10.963Z,98.07
2022-11-17T02:42:11.162Z,98.16
2022-11-17T02:43:12.438Z,98.07
2022-11-17T02:44:12.678Z,98.07
2022-11-17T02:45:10.823Z,97.86
2022-11-17T02:46:11.557Z,97.96
2022-11-17T02:47:13.372Z,97.96
2022-11-17T02:48:11.494Z,97.96
2022-11-17T02:49:11.698Z,97.75
2022-11-17T02:50:11.902Z,97.65
2022-11-17T02:51:11.098Z,97.65
2022-11-17T02:52:11.312Z,97.65
2022-11-17T02:53:11.503Z,97.65
2022-11-17T02:54:11.714Z,97.55
2022-11-17T02:55:10.892Z,97.65
2022-11-17T02:56:11.072Z,97.65
2022-11-17T02:57:11.337Z,97.75
2022-11-17T02:58:11.512Z,97.96
2022-11-17T02:59:10.703Z,98.16
2022-11-17T03:00:10.924Z,98.16
2022-11-17T03:01:11.176Z,98.07
2022-11-17T03:02:14.533Z,98.16
2022-11-17T03:03:10.577Z,98.37
2022-11-17T03:04:10.823Z,98.47
2022-11-17T03:05:11.075Z,98.68
2022-11-17T03:06:11.307Z,98.72
2022-11-17T03:07:11.551Z,98.62
2022-11-17T03:08:12.792Z,98.52
2022-11-17T03:09:10.934Z,98.52
2022-11-17T03:10:11.142Z,98.62
2022-11-17T03:11:10.764Z,98.62
2022-11-17T03:12:10.964Z,98.83
2022-11-17T03:13:11.186Z,98.93
2022-11-17T03:14:11.453Z,98.93
2022-11-17T03:15:10.582Z,98.93
2022-11-17T03:16:10.803Z,98.93
2022-11-17T03:17:10.807Z,98.83
2022-11-17T03:18:11.042Z,98.93
2022-11-17T03:19:12.524Z,99.03
2022-11-17T03:20:10.717Z,99.13
2022-11-17T03:21:10.643Z,99.13
2022-11-17T03:22:10.887Z,99.24
2022-11-17T03:23:11.114Z,99.44
2022-11-17T03:24:11.322Z,99.54
2022-11-17T03:25:10.532Z,99.65
2022-11-17T03:26:10.749Z,99.65
2022-11-17T03:27:10.962Z,99.65
2022-11-17T03:28:11.187Z,99.75
2022-11-17T03:29:10.364Z,99.75
2022-11-17T03:30:10.576Z,99.65
2022-11-17T03:31:10.862Z,99.75
2022-11-17T03:32:10.982Z,99.65
2022-11-17T03:33:11.222Z,99.44
2022-11-17T03:34:14.511Z,99.34
2022-11-17T03:35:10.572Z,99.13
2022-11-17T03:36:10.772Z,98.93
2022-11-17T03:37:11.087Z,98.72
2022-11-17T03:38:10.147Z,98.62
2022-11-17T03:39:10.351Z,98.72
2022-11-17T03:40:10.582Z,98.62
2022-11-17T03:41:10.833Z,98.52
2022-11-17T03:42:14.158Z,98.62
2022-11-17T03:43:10.186Z,98.62
2022-11-17T03:44:10.406Z,98.62
2022-11-17T03:45:10.202Z,98.52
2022-11-17T03:46:10.177Z,98.42
2022-11-17T03:47:10.387Z,98.32
2022-11-17T03:48:11.724Z,98.21
2022-11-17T03:49:10.840Z,98.07
2022-11-17T03:50:11.056Z,97.96
2022-11-17T03:51:10.242Z,98.07
2022-11-17T03:52:10.427Z,97.86
2022-11-17T03:53:10.663Z,97.86
2022-11-17T03:54:10.918Z,97.75
2022-11-17T03:55:10.095Z,97.75
2022-11-17T03:56:10.321Z,97.86
2022-11-17T03:57:10.566Z,97.86
2022-11-17T03:58:10.797Z,97.75
2022-11-17T03:59:09.997Z,97.75
2022-11-17T04:00:10.353Z,97.55
2022-11-17T04:01:11.513Z,97.34
2022-11-17T04:02:10.740Z,97.45
2022-11-17T04:03:09.866Z,97.24
2022-11-17T04:04:11.151Z,97.24
2022-11-17T04:05:10.377Z,97.34
2022-11-17T04:06:10.559Z,97.34
2022-11-17T04:07:09.776Z,97.34
2022-11-17T04:08:09.983Z,97.24
2022-11-17T04:09:10.207Z,97.14
2022-11-17T04:10:10.998Z,97.14
2022-11-17T04:11:10.777Z,97.29
2022-11-17T04:12:09.915Z,97.29
2022-11-17T04:13:10.191Z,97.39
2022-11-17T04:14:10.436Z,97.39
2022-11-17T04:15:09.656Z,97.29
2022-11-17T04:16:09.947Z,97.39
2022-11-17T04:17:10.181Z,97.39
2022-11-17T04:18:11.476Z,97.39
2022-11-17T04:19:11.615Z,97.39
2022-11-17T04:20:09.710Z,97.29
2022-11-17T04:21:10.301Z,97.39
2022-11-17T04:22:10.211Z,97.29
2022-11-17T04:23:10.431Z,97.19
2022-11-17T04:24:09.661Z,97.08
2022-11-17T04:25:09.881Z,96.78
2022-11-17T04:26:10.186Z,96.67
2022-11-17T04:27:10.396Z,96.67
2022-11-17T04:28:11.487Z,96.67
2022-11-17T04:29:09.708Z,96.57
2022-11-17T04:30:09.946Z,96.57
2022-11-17T04:31:10.126Z,96.47
2022-11-17T04:32:10.319Z,96.47
2022-11-17T04:33:10.338Z,96.37
2022-11-17T04:34:09.720Z,96.37
2022-11-17T04:35:09.907Z,96.37
2022-11-17T04:36:10.126Z,96.26
2022-11-17T04:37:10.332Z,96.26
2022-11-17T04:38:09.501Z,96.37
2022-11-17T04:39:09.921Z,96.22
2022-11-17T04:40:09.916Z,96.53
2022-11-17T04:41:10.146Z,96.63
2022-11-17T04:42:10.348Z,96.73
2022-11-17T04:43:10.537Z,96.83
2022-11-17T04:44:09.701Z,97.19
2022-11-17T04:45:11.066Z,97.49
2022-11-17T04:46:10.121Z,97.80
2022-11-17T04:47:09.287Z,98.00
2022-11-17T04:48:09.507Z,98.00
2022-11-17T04:49:09.791Z,98.21
2022-11-17T04:50:09.907Z,98.32
2022-11-17T04:51:10.501Z,98.42
2022-11-17T04:52:09.430Z,98.42
2022-11-17T04:53:09.638Z,98.32
2022-11-17T04:54:10.904Z,98.21
2022-11-17T04:55:10.047Z,98.11
2022-11-17T04:56:11.330Z,98.11
2022-11-17T04:57:09.461Z,98.00
2022-11-17T04:58:11.126Z,98.11
2022-11-17T04:59:09.846Z,98.25
2022-11-17T05:00:10.061Z,98.25
2022-11-17T05:01:09.258Z,98.25
2022-11-17T05:02:10.600Z,98.21
2022-11-17T05:03:09.696Z,98.11
2022-11-17T05:04:09.908Z,98.11
2022-11-17T05:05:09.096Z,98.00
2022-11-17T05:06:09.308Z,98.00
2022-11-17T05:07:10.696Z,98.00
2022-11-17T05:08:13.259Z,98.00
2022-11-17T05:09:09.998Z,98.11
2022-11-17T05:10:12.292Z,98.21
2022-11-17T05:11:09.592Z,98.46
2022-11-17T05:12:09.672Z,98.46
2022-11-17T05:13:09.881Z,98.46
2022-11-17T05:14:10.099Z,98.32
2022-11-17T05:15:10.347Z,98.36
2022-11-17T05:16:09.531Z,98.25
2022-11-17T05:17:11.958Z,98.11
2022-11-17T05:18:11.092Z,98.00
2022-11-17T05:19:09.203Z,97.91
2022-11-17T05:20:09.446Z,97.70
2022-11-17T05:21:09.683Z,97.60
2022-11-17T05:22:08.852Z,97.49
2022-11-17T05:23:09.076Z,97.39
2022-11-17T05:24:09.352Z,97.49
2022-11-17T05:25:10.609Z,97.29
2022-11-17T05:26:08.707Z,97.19
2022-11-17T05:27:09.988Z,97.08
2022-11-17T05:28:09.167Z,97.08
2022-11-17T05:29:09.437Z,96.98
2022-11-17T05:30:12.095Z,97.08
2022-11-17T05:31:11.053Z,97.08
2022-11-17T05:32:09.063Z,96.98
2022-11-17T05:33:10.332Z,96.98
2022-11-17T05:34:11.113Z,96.98
2022-11-17T05:35:10.320Z,96.88
2022-11-17T05:36:09.982Z,96.88
2022-11-17T05:37:09.213Z,96.88
2022-11-17T05:38:10.422Z,96.53
2022-11-17T05:39:08.567Z,96.22
2022-11-17T05:40:11.715Z,96.12
2022-11-17T05:41:11.094Z,96.32
2022-11-17T05:42:09.242Z,96.22
2022-11-17T05:43:09.523Z,96.01
2022-11-17T05:44:09.708Z,96.01
2022-11-17T05:45:10.945Z,95.81
2022-11-17T05:46:09.135Z,95.61
2022-11-17T05:47:09.333Z,95.29
2022-11-17T05:48:08.514Z,95.29
2022-11-17T05:49:11.798Z,95.40
2022-11-17T05:50:08.973Z,95.40
2022-11-17T05:51:10.299Z,95.40
2022-11-17T05:52:10.503Z,95.29
2022-11-17T05:53:08.651Z,94.84
2022-11-17T05:54:11.995Z,94.84
2022-11-17T05:55:09.123Z,94.95
2022-11-17T05:56:12.223Z,94.43
2022-11-17T05:57:08.514Z,94.43
2022-11-17T05:58:09.793Z,94.23
2022-11-17T05:59:10.033Z,93.92
2022-11-17T06:00:10.215Z,93.41
2022-11-17T06:01:09.403Z,93.20
2022-11-17T06:02:09.653Z,93.16
2022-11-17T06:03:08.819Z,93.16
2022-11-17T06:04:09.069Z,93.16
2022-11-17T06:05:09.216Z,93.16
2022-11-17T06:06:08.394Z,92.96
2022-11-17T06:07:08.606Z,92.85
2022-11-17T06:08:09.863Z,92.65
2022-11-17T06:09:10.044Z,92.24
2022-11-17T06:10:10.225Z,92.44
2022-11-17T06:11:17.723Z,92.44
2022-11-17T06:12:08.601Z,92.34
2022-11-17T06:13:10.904Z,92.34
2022-11-17T06:14:09.008Z,92.14
2022-11-17T06:15:10.240Z,92.34
2022-11-17T06:16:10.415Z,92.24
2022-11-17T06:17:10.608Z,92.34
2022-11-17T06:18:08.749Z,92.14
2022-11-17T06:19:09.043Z,92.14
2022-11-17T06:20:08.079Z,92.34
2022-11-17T06:21:08.263Z,92.14
2022-11-17T06:22:12.776Z,91.78
2022-11-17T06:23:10.729Z,91.89
2022-11-17T06:24:10.969Z,92.03
2022-11-17T06:25:08.038Z,92.24
2022-11-17T06:26:10.320Z,92.14
2022-11-17T06:27:11.493Z,92.55
2022-11-17T06:28:13.882Z,92.65
2022-11-17T06:29:08.922Z,92.65
2022-11-17T06:30:08.127Z,93.06
2022-11-17T06:31:08.334Z,93.26
2022-11-17T06:32:09.398Z,93.47
2022-11-17T06:33:08.699Z,93.77
2022-11-17T06:34:08.909Z,94.08
2022-11-17T06:35:12.311Z,94.39
2022-11-17T06:36:10.407Z,94.59
2022-11-17T06:37:10.633Z,94.80
2022-11-17T06:38:08.783Z,94.95
2022-11-17T06:39:10.033Z,95.15
2022-11-17T06:40:11.218Z,95.05
2022-11-17T06:41:12.089Z,95.00
2022-11-17T06:42:10.688Z,95.10
2022-11-17T06:43:08.819Z,95.66
2022-11-17T06:44:10.055Z,95.87
2022-11-17T06:45:10.260Z,95.56
2022-11-17T06:46:09.453Z,95.66
2022-11-17T06:47:08.608Z,96.07
2022-11-17T06:48:07.760Z,95.97
2022-11-17T06:49:07.985Z,95.76
2022-11-17T06:50:09.242Z,95.87
2022-11-17T06:51:09.419Z,96.17
2022-11-17T06:52:11.845Z,95.97
2022-11-17T06:53:07.765Z,96.17
2022-11-17T06:54:07.935Z,96.48
2022-11-17T06:55:08.160Z,96.69
2022-11-17T06:56:10.445Z,96.58
2022-11-17T06:57:08.548Z,96.69
2022-11-17T06:58:09.095Z,96.69
2022-11-17T06:59:07.929Z,96.69
2022-11-17T07:00:09.167Z,96.58
2022-11-17T07:01:11.498Z,96.69
2022-11-17T07:02:11.684Z,96.58
2022-11-17T07:03:07.696Z,96.48
2022-11-17T07:04:09.896Z,96.28
2022-11-17T07:05:10.161Z,96.28
2022-11-17T07:06:08.296Z,96.38
2022-11-17T07:07:08.607Z,95.97
2022-11-17T07:08:08.654Z,96.07
2022-11-17T07:09:08.867Z,96.07
2022-11-17T07:10:10.130Z,95.97
2022-11-17T07:11:08.225Z,95.76
2022-11-17T07:12:09.335Z,95.87
2022-11-17T07:13:16.104Z,95.36
2022-11-17T07:14:07.778Z,95.21
2022-11-17T07:15:07.945Z,95.10
2022-11-17T07:16:14.626Z,95.00
2022-11-17T07:17:10.555Z,95.00
2022-11-17T07:18:15.900Z,95.21
2022-11-17T07:19:07.800Z,95.31
2022-11-17T07:20:11.103Z,95.10
2022-11-17T07:21:10.261Z,94.80
2022-11-17T07:22:08.457Z,94.18
2022-11-17T07:23:08.611Z,93.77
2022-11-17T07:24:09.845Z,93.43
2022-11-17T07:25:10.081Z,93.12
2022-11-17T07:26:08.293Z,91.78
2022-11-17T07:27:07.387Z,92.40
2022-11-17T07:28:11.921Z,92.50
2022-11-17T07:29:08.861Z,92.60
2022-11-17T07:30:09.025Z,92.50
2022-11-17T07:31:09.233Z,92.60
2022-11-17T07:32:10.531Z,92.71
2022-11-17T07:33:09.677Z,92.60
2022-11-17T07:34:07.910Z,92.50
2022-11-17T07:35:09.382Z,92.91
2022-11-17T07:36:09.261Z,93.52
2022-11-17T07:37:11.327Z,94.04
2022-11-17T07:38:09.665Z,94.04
2022-11-17T07:39:09.887Z,94.14
2022-11-17T07:40:10.096Z,94.59
2022-11-17T07:41:10.307Z,94.80
2022-11-17T07:42:12.710Z,95.00
2022-11-17T07:43:08.632Z,95.10
2022-11-17T07:44:08.781Z,95.41
2022-11-17T07:45:07.466Z,95.72
2022-11-17T07:46:09.191Z,95.62
2022-11-17T07:47:08.391Z,95.72
2022-11-17T07:48:10.622Z,95.82
2022-11-17T07:49:07.705Z,95.82
2022-11-17T07:50:07.912Z,96.03
2022-11-17T07:51:08.090Z,96.23
2022-11-17T07:52:07.250Z,96.23
2022-11-17T07:53:10.591Z,96.33
2022-11-17T07:54:08.741Z,96.54
2022-11-17T07:55:07.846Z,96.64
2022-11-17T07:56:08.139Z,96.54
2022-11-17T07:57:12.441Z,96.74
2022-11-17T07:58:07.489Z,96.84
2022-11-17T07:59:10.733Z,96.95
2022-11-17T08:00:08.972Z,96.84
2022-11-17T08:01:09.314Z,96.95
2022-11-17T08:02:09.417Z,96.54
2022-11-17T08:03:09.632Z,96.74
2022-11-17T08:04:08.895Z,96.44
2022-11-17T08:05:09.018Z,96.44
2022-11-17T08:06:11.465Z,96.64
2022-11-17T08:07:11.600Z,96.44
2022-11-17T08:08:06.692Z,96.44
2022-11-17T08:09:10.974Z,96.54
2022-11-17T08:10:09.106Z,96.64
2022-11-17T08:11:09.335Z,96.64
2022-11-17T08:12:10.200Z,96.95
2022-11-17T08:13:08.787Z,96.84
2022-11-17T08:14:09.027Z,97.05
2022-11-17T08:15:09.171Z,96.54
2022-11-17T08:16:10.410Z,96.33
2022-11-17T08:17:10.672Z,95.92
2022-11-17T08:18:12.895Z,95.00
2022-11-17T08:19:06.937Z,95.10
2022-11-17T08:20:10.262Z,95.47
2022-11-17T08:21:09.373Z,95.98
2022-11-17T08:22:08.544Z,95.98
2022-11-17T08:23:06.716Z,95.51
2022-11-17T08:24:08.892Z,94.85
2022-11-17T08:25:08.135Z,95.06
2022-11-17T08:26:09.396Z,95.06
2022-11-17T08:27:08.595Z,94.75
2022-11-17T08:28:08.859Z,94.34
2022-11-17T08:29:09.066Z,94.34
2022-11-17T08:30:08.249Z,94.65
2022-11-17T08:31:08.435Z,94.34
2022-11-17T08:32:08.646Z,94.24
2022-11-17T08:33:09.947Z,93.73
2022-11-17T08:34:09.041Z,93.43
2022-11-17T08:35:10.272Z,93.12
2022-11-17T08:36:09.501Z,93.12
2022-11-17T08:37:08.646Z,92.91
2022-11-17T08:38:08.932Z,93.52
2022-11-17T08:39:09.128Z,93.93
2022-11-17T08:40:08.231Z,93.63
2022-11-17T08:41:08.480Z,92.40
2022-11-17T08:42:08.700Z,92.46
2022-11-17T08:43:07.852Z,92.66
2022-11-17T08:44:07.110Z,92.66
2022-11-17T08:45:09.566Z,92.87
2022-11-17T08:46:10.605Z,92.77
2022-11-17T08:47:08.721Z,92.36
2022-11-17T08:48:08.925Z,91.95
2022-11-17T08:49:09.131Z,91.85
2022-11-17T08:50:11.456Z,90.41
2022-11-17T08:51:10.589Z,90.52
2022-11-17T08:52:08.704Z,91.44
2022-11-17T08:53:07.976Z,91.64
2022-11-17T08:54:08.065Z,91.85
2022-11-17T08:55:08.302Z,91.74
2022-11-17T08:56:09.597Z,92.05
2022-11-17T08:57:08.769Z,92.56
2022-11-17T08:58:08.857Z,92.56
2022-11-17T08:59:09.061Z,92.36
2022-11-17T09:00:09.276Z,92.46
2022-11-17T09:01:11.104Z,92.36
2022-11-17T09:02:08.643Z,92.56
2022-11-17T09:03:11.884Z,91.95
2022-11-17T09:04:05.940Z,91.85
2022-11-17T09:05:08.255Z,91.33
2022-11-17T09:06:09.600Z,91.44
2022-11-17T09:07:08.915Z,91.13
2022-11-17T09:08:37.888Z,90.41
2022-11-17T09:09:10.263Z,90.68
2022-11-17T09:10:08.221Z,90.47
2022-11-17T09:11:06.320Z,90.47
2022-11-17T09:12:06.775Z,90.88
2022-11-17T09:13:06.973Z,90.17
2022-11-17T09:14:07.943Z,90.17
2022-11-17T09:15:06.047Z,89.86
2022-11-17T09:16:08.345Z,89.76
2022-11-17T09:17:06.439Z,89.97
2022-11-17T09:18:06.633Z,89.65
2022-11-17T09:19:07.035Z,89.56
2022-11-17T09:20:07.050Z,89.65
2022-11-17T09:21:06.190Z,89.45
2022-11-17T09:22:06.620Z,88.33
2022-11-17T09:23:06.551Z,88.23
2022-11-17T09:24:06.752Z,89.45
2022-11-17T09:25:11.880Z,88.23
2022-11-17T09:26:09.161Z,87.82
2022-11-17T09:27:08.186Z,87.00
2022-11-17T09:28:07.491Z,88.12
2022-11-17T09:29:07.680Z,88.74
2022-11-17T09:30:05.802Z,88.53
2022-11-17T09:31:07.256Z,87.51
2022-11-17T09:32:06.261Z,88.23
2022-11-17T09:33:06.346Z,87.71
2022-11-17T09:34:06.163Z,87.67
2022-11-17T09:35:05.734Z,87.30
2022-11-17T09:36:05.911Z,86.55
2022-11-17T09:37:06.890Z,86.44
2022-11-17T09:38:06.320Z,87.47
2022-11-17T09:39:05.495Z,88.08
2022-11-17T09:40:05.720Z,86.76
2022-11-17T09:41:05.891Z,85.94
2022-11-17T09:42:06.102Z,86.85
2022-11-17T09:43:07.300Z,86.65
2022-11-17T09:44:06.480Z,85.94
2022-11-17T09:45:05.642Z,87.67
2022-11-17T09:46:07.657Z,86.76
2022-11-17T09:47:07.035Z,86.55
2022-11-17T09:48:38.934Z,87.26
2022-11-17T09:49:07.685Z,86.96
2022-11-17T09:50:05.621Z,86.55
2022-11-17T09:51:06.885Z,86.04
2022-11-17T09:52:07.080Z,84.30
2022-11-17T09:53:07.265Z,85.22
2022-11-17T09:54:06.452Z,84.30
2022-11-17T09:55:07.010Z,84.30
2022-11-17T09:56:05.846Z,84.61
2022-11-17T09:57:06.021Z,84.00
2022-11-17T09:58:05.179Z,83.89
2022-11-17T09:59:05.384Z,83.18
2022-11-17T10:00:05.615Z,82.26
2022-11-17T10:01:07.787Z,83.07
2022-11-17T10:02:06.086Z,83.24
2022-11-17T10:03:05.185Z,81.71
2022-11-17T10:04:05.421Z,81.40
2022-11-17T10:05:05.582Z,81.10
2022-11-17T10:06:05.827Z,81.51
2022-11-17T10:07:06.415Z,82.22
2022-11-17T10:08:12.461Z,81.81
2022-11-17T10:09:05.392Z,80.79
2022-11-17T10:10:05.554Z,80.99
2022-11-17T10:11:05.722Z,81.60
2022-11-17T10:12:05.940Z,81.91
2022-11-17T10:13:06.399Z,81.20
2022-11-17T10:14:05.257Z,80.69
2022-11-17T10:15:05.466Z,81.10
2022-11-17T10:16:05.690Z,81.51
2022-11-17T10:17:05.887Z,81.51
2022-11-17T10:18:05.070Z,81.71
2022-11-17T10:19:07.444Z,81.91
2022-11-17T10:20:05.423Z,81.51
2022-11-17T10:21:05.605Z,80.79
2022-11-17T10:22:05.807Z,80.18
2022-11-17T10:23:04.976Z,79.66
2022-11-17T10:24:05.146Z,79.66
2022-11-17T10:25:06.824Z,80.18
2022-11-17T10:26:05.615Z,81.30
2022-11-17T10:27:04.701Z,80.58
2022-11-17T10:28:04.912Z,79.73
2022-11-17T10:29:08.439Z,79.66
2022-11-17T10:30:05.286Z,79.83
2022-11-17T10:31:06.327Z,80.24
2022-11-17T10:32:05.655Z,80.65
2022-11-17T10:33:04.843Z,80.85
2022-11-17T10:34:05.007Z,80.89
2022-11-17T10:35:05.206Z,80.48
2022-11-17T10:36:05.475Z,81.60
2022-11-17T10:37:06.753Z,81.60
2022-11-17T10:38:04.751Z,81.40
2022-11-17T10:39:05.326Z,81.60
2022-11-17T10:40:05.145Z,82.12
2022-11-17T10:41:05.451Z,80.89
2022-11-17T10:42:04.525Z,81.51
2022-11-17T10:43:06.317Z,82.12
2022-11-17T10:44:04.980Z,81.20
2022-11-17T10:45:05.195Z,81.30
2022-11-17T10:46:05.377Z,82.32
2022-11-17T10:47:04.565Z,82.42
2022-11-17T10:48:04.781Z,82.63
2022-11-17T10:49:06.900Z,81.60
2022-11-17T10:50:06.160Z,82.12
2022-11-17T10:51:05.384Z,82.63
2022-11-17T10:52:04.582Z,82.32
2022-11-17T10:53:09.988Z,82.42
2022-11-17T10:54:05.916Z,81.81
2022-11-17T10:55:08.241Z,81.81
2022-11-17T10:56:05.346Z,81.71
2022-11-17T10:57:04.557Z,81.60
2022-11-17T10:58:04.730Z,81.40
2022-11-17T10:59:04.941Z,81.51
2022-11-17T11:00:05.136Z,82.63
2022-11-17T11:01:04.397Z,81.81
2022-11-17T11:02:05.543Z,82.22
2022-11-17T11:03:04.751Z,82.53
2022-11-17T11:04:04.946Z,81.71
2022-11-17T11:05:05.150Z,81.91
2022-11-17T11:06:04.292Z,82.32
2022-11-17T11:07:06.459Z,82.73
2022-11-17T11:08:05.721Z,81.71
2022-11-17T11:09:05.936Z,81.20
2022-11-17T11:10:05.040Z,82.28
2022-11-17T11:11:04.202Z,81.87
2022-11-17T11:12:05.340Z,81.87
2022-11-17T11:13:10.236Z,80.85
2022-11-17T11:14:04.761Z,80.75
2022-11-17T11:15:04.979Z,79.83
2022-11-17T11:16:04.130Z,80.04
2022-11-17T11:17:04.340Z,79.22
2022-11-17T11:18:04.541Z,80.75
2022-11-17T11:19:06.305Z,79.52
2022-11-17T11:20:05.895Z,78.71
2022-11-17T11:21:04.112Z,78.91
2022-11-17T11:22:04.460Z,79.32
2022-11-17T11:23:04.520Z,79.02
2022-11-17T11:24:04.765Z,78.50
2022-11-17T11:25:08.330Z,77.75
2022-11-17T11:26:04.161Z,79.08
2022-11-17T11:27:04.330Z,78.77
2022-11-17T11:28:05.510Z,79.08
2022-11-17T11:29:04.783Z,79.18
2022-11-17T11:30:03.896Z,78.57
2022-11-17T11:31:04.192Z,78.47
2022-11-17T11:32:04.318Z,77.96
2022-11-17T11:33:04.512Z,78.67
2022-11-17T11:34:05.631Z,77.55
2022-11-17T11:35:04.908Z,78.27
2022-11-17T11:36:03.959Z,77.04
2022-11-17T11:37:04.191Z,76.43
2022-11-17T11:38:05.389Z,76.93
2022-11-17T11:39:08.900Z,77.86
2022-11-17T11:40:04.699Z,77.45
2022-11-17T11:41:04.951Z,77.86
2022-11-17T11:42:08.286Z,77.45
2022-11-17T11:43:05.290Z,77.55
2022-11-17T11:44:05.543Z,78.06
2022-11-17T11:45:06.506Z,78.88
2022-11-17T11:46:03.849Z,78.06
2022-11-17T11:47:03.996Z,77.04
2022-11-17T11:48:06.336Z,77.25
2022-11-17T11:49:05.436Z,77.75
2022-11-17T11:50:05.536Z,77.34
2022-11-17T11:51:05.840Z,76.93
2022-11-17T11:52:03.922Z,76.84
2022-11-17T11:53:04.113Z,76.53
2022-11-17T11:54:06.850Z,77.34
2022-11-17T11:55:05.557Z,77.34
2022-11-17T11:56:04.705Z,75.31
2022-11-17T11:57:04.906Z,76.43
2022-11-17T11:58:04.120Z,76.84
2022-11-17T11:59:04.259Z,77.45
2022-11-17T12:00:11.645Z,74.59
2022-11-17T12:01:04.730Z,76.19
2022-11-17T12:02:03.855Z,76.39
2022-11-17T12:03:04.123Z,76.59
2022-11-17T12:04:04.255Z,75.68
2022-11-17T12:05:05.520Z,75.82
2022-11-17T12:06:06.746Z,75.57
2022-11-17T12:07:03.888Z,76.70
2022-11-17T12:08:10.173Z,76.09
2022-11-17T12:09:05.255Z,75.37
2022-11-17T12:10:04.414Z,76.59
2022-11-17T12:11:05.705Z,76.29
2022-11-17T12:12:03.790Z,76.29
2022-11-17T12:13:03.971Z,76.09
2022-11-17T12:14:04.255Z,76.29
2022-11-17T12:15:04.325Z,75.78
2022-11-17T12:16:03.470Z,75.37
2022-11-17T12:17:07.270Z,74.66
2022-11-17T12:18:03.989Z,75.07
2022-11-17T12:19:04.065Z,75.48
2022-11-17T12:20:10.642Z,75.07
2022-11-17T12:21:04.436Z,75.68
2022-11-17T12:22:03.650Z,75.48
2022-11-17T12:23:03.846Z,75.57
2022-11-17T12:24:04.045Z,75.37
2022-11-17T12:25:03.200Z,76.19
2022-11-17T12:26:03.430Z,75.98
2022-11-17T12:27:03.661Z,74.66
2022-11-17T12:28:03.841Z,75.16
2022-11-17T12:29:06.285Z,75.16
2022-11-17T12:30:04.211Z,75.98
2022-11-17T12:31:09.421Z,74.55
2022-11-17T12:32:04.534Z,75.37
2022-11-17T12:33:04.748Z,75.27
2022-11-17T12:34:03.897Z,73.94
2022-11-17T12:35:06.812Z,75.16
2022-11-17T12:36:03.230Z,73.74
2022-11-17T12:37:05.515Z,74.76
2022-11-17T12:38:04.677Z,74.66
2022-11-17T12:39:04.870Z,73.94
2022-11-17T12:40:05.079Z,74.25
2022-11-17T12:41:03.231Z,74.55
2022-11-17T12:42:03.385Z,74.66
2022-11-17T12:43:03.695Z,75.88
2022-11-17T12:44:03.770Z,74.62
2022-11-17T12:45:04.985Z,75.34
2022-11-17T12:46:06.371Z,75.13
2022-11-17T12:47:03.296Z,73.91
2022-11-17T12:48:26.793Z,73.91
2022-11-17T12:49:04.721Z,74.42
2022-11-17T12:50:04.830Z,74.11
2022-11-17T12:51:05.199Z,72.79
2022-11-17T12:52:03.245Z,74.01